Time;durP1;ratioP1;P1;durP2;ratioP2;P2;SDS_P1;SDS_P2;PMS_P1;PMS_P2;Temp;Humidity;BMP_temperature;BMP_pressure;BME280_temperature;BME280_humidity;BME280_pressure;Samples;Min_cycle;Max_cycle;Signal;HPM_P1;HPM_P2
2023/07/29 00:00:39;;;;;;;10.32;6.25;;;;;;;;;;5111533;28;20023;-61
2023/07/29 00:03:04;;;;;;;8.77;6.13;;;;;;;;;;5105072;28;20366;-61
2023/07/29 00:05:30;;;;;;;9.18;5.90;;;;;;;;;;5103401;28;20035;-61
2023/07/29 00:07:55;;;;;;;7.40;5.47;;;;;;;;;;5097106;28;20102;-60
2023/07/29 00:10:21;;;;;;;8.35;6.28;;;;;;;;;;5110612;28;20031;-61
2023/07/29 00:12:46;;;;;;;10.10;5.85;;;;;;;;;;5110107;28;20035;-61
2023/07/29 00:15:12;;;;;;;10.13;6.78;;;;;;;;;;5089653;28;20074;-61
2023/07/29 00:17:37;;;;;;;9.80;6.00;;;;;;;;;;5102953;28;20476;-60
2023/07/29 00:20:03;;;;;;;8.52;6.25;;;;;;;;;;5106605;28;20127;-61
2023/07/29 00:22:28;;;;;;;9.68;6.15;;;;;;;;;;5100421;28;20089;-60
2023/07/29 00:24:55;;;;;;;11.23;6.10;;;;;;;;;;5098625;28;20032;-60
2023/07/29 00:27:21;;;;;;;12.45;6.40;;;;;;;;;;5109042;28;20035;-60
2023/07/29 00:29:47;;;;;;;7.57;6.30;;;;;;;;;;5112399;28;20044;-60
2023/07/29 00:32:12;;;;;;;8.25;6.15;;;;;;;;;;5098123;28;20032;-60
2023/07/29 00:34:39;;;;;;;8.80;5.85;;;;;;;;;;5095262;28;20031;-60
2023/07/29 00:37:05;;;;;;;8.95;6.47;;;;;;;;;;5106070;28;20123;-60
2023/07/29 00:39:34;;;;;;;8.30;5.82;;;;;;;;;;5093387;28;20162;-60
2023/07/29 00:42:00;;;;;;;9.05;6.40;;;;;;;;;;5091584;28;20032;-60
2023/07/29 00:44:25;;;;;;;7.47;5.57;;;;;;;;;;5107861;28;20499;-60
2023/07/29 00:46:53;;;;;;;8.30;5.78;;;;;;;;;;5110917;28;20470;-60
2023/07/29 00:49:22;;;;;;;7.88;5.82;;;;;;;;;;5111197;28;20051;-60
2023/07/29 00:51:47;;;;;;;8.63;5.30;;;;;;;;;;5100981;28;20094;-60
2023/07/29 00:54:13;;;;;;;6.85;5.35;;;;;;;;;;5101472;28;20032;-60
2023/07/29 00:56:39;;;;;;;7.80;5.45;;;;;;;;;;5110332;28;20111;-59
2023/07/29 00:59:05;;;;;;;10.20;5.72;;;;;;;;;;5109135;28;20411;-60
2023/07/29 01:01:31;;;;;;;8.60;5.65;;;;;;;;;;5111179;28;20028;-60
2023/07/29 01:03:57;;;;;;;8.05;5.35;;;;;;;;;;5106677;28;20039;-60
2023/07/29 01:06:32;;;;;;;8.27;5.93;;;;;;;;;;5102841;28;20023;-60
2023/07/29 01:09:12;;;;;;;8.50;6.00;;;;;;;;;;5092282;28;20036;-59
2023/07/29 01:11:40;;;;;;;8.70;5.95;;;;;;;;;;5091757;28;20046;-60
2023/07/29 01:14:12;;;;;;;11.57;6.55;;;;;;;;;;5104348;28;20027;-60
2023/07/29 01:16:53;;;;;;;9.15;6.60;;;;;;;;;;5092120;28;20119;-60
2023/07/29 01:19:41;;;;;;;10.10;6.45;;;;;;;;;;5110369;28;20038;-60
2023/07/29 01:22:07;;;;;;;8.98;6.50;;;;;;;;;;5102669;28;20047;-60
2023/07/29 01:24:33;;;;;;;8.43;6.50;;;;;;;;;;5101775;28;20043;-60
2023/07/29 01:26:58;;;;;;;9.02;6.60;;;;;;;;;;5095919;28;20097;-59
2023/07/29 01:29:24;;;;;;;10.02;6.85;;;;;;;;;;5090189;28;20043;-60
2023/07/29 01:31:53;;;;;;;10.93;7.18;;;;;;;;;;5101538;28;20080;-60
2023/07/29 01:34:35;;;;;;;10.52;6.90;;;;;;;;;;5093173;28;20652;-59
2023/07/29 01:37:05;;;;;;;11.77;6.97;;;;;;;;;;5105357;28;20039;-59
2023/07/29 01:39:33;;;;;;;8.75;6.45;;;;;;;;;;5098987;28;20035;-60
2023/07/29 01:41:58;;;;;;;11.68;6.90;;;;;;;;;;5110446;28;20131;-59
2023/07/29 01:44:25;;;;;;;9.93;7.20;;;;;;;;;;5101098;28;20302;-60
2023/07/29 01:46:50;;;;;;;9.30;7.25;;;;;;;;;;5106994;28;20036;-60
2023/07/29 01:49:16;;;;;;;9.10;7.13;;;;;;;;;;5090624;28;20430;-60
2023/07/29 01:51:41;;;;;;;10.57;7.22;;;;;;;;;;5102397;28;20030;-60
2023/07/29 01:54:06;;;;;;;11.05;7.35;;;;;;;;;;5096968;28;20032;-60
2023/07/29 01:56:32;;;;;;;9.95;7.63;;;;;;;;;;5107571;28;20031;-60
2023/07/29 01:58:57;;;;;;;9.52;6.68;;;;;;;;;;5110381;28;20062;-60
2023/07/29 02:01:23;;;;;;;12.52;7.07;;;;;;;;;;5110850;28;20353;-60
2023/07/29 02:03:54;;;;;;;14.13;7.78;;;;;;;;;;5092935;28;20998;-60
2023/07/29 02:06:20;;;;;;;11.98;7.47;;;;;;;;;;5098303;28;20062;-60
2023/07/29 02:08:45;;;;;;;11.60;7.65;;;;;;;;;;5102024;28;20103;-60
2023/07/29 02:11:10;;;;;;;9.57;7.03;;;;;;;;;;5110289;28;20064;-60
2023/07/29 02:13:36;;;;;;;14.10;7.70;;;;;;;;;;5099727;28;20035;-60
2023/07/29 02:16:01;;;;;;;10.45;7.32;;;;;;;;;;5114458;28;20034;-60
2023/07/29 02:18:26;;;;;;;8.70;6.97;;;;;;;;;;5113415;28;20541;-60
2023/07/29 02:20:52;;;;;;;11.77;7.93;;;;;;;;;;5114527;28;20370;-59
2023/07/29 02:23:17;;;;;;;10.55;7.78;;;;;;;;;;5095938;28;20468;-60
2023/07/29 02:25:43;;;;;;;11.10;7.25;;;;;;;;;;5096430;28;20035;-60
2023/07/29 02:28:08;;;;;;;12.65;7.80;;;;;;;;;;5094019;28;20028;-60
2023/07/29 02:30:34;;;;;;;11.75;7.20;;;;;;;;;;5093675;28;20048;-60
2023/07/29 02:33:01;;;;;;;13.15;7.97;;;;;;;;;;5100197;28;20925;-59
2023/07/29 02:35:26;;;;;;;12.02;7.57;;;;;;;;;;5110924;28;20031;-60
2023/07/29 02:37:52;;;;;;;10.82;7.40;;;;;;;;;;5097070;28;20081;-60
2023/07/29 02:40:17;;;;;;;10.73;7.43;;;;;;;;;;5099394;28;20154;-60
2023/07/29 02:42:43;;;;;;;10.85;7.68;;;;;;;;;;5110819;28;20115;-59
2023/07/29 02:45:10;;;;;;;10.82;7.05;;;;;;;;;;5104336;28;20035;-60
2023/07/29 02:47:37;;;;;;;10.85;7.47;;;;;;;;;;5103377;28;20105;-60
2023/07/29 02:50:02;;;;;;;10.95;7.55;;;;;;;;;;5105807;28;20035;-60
2023/07/29 02:52:28;;;;;;;13.07;8.27;;;;;;;;;;5097167;28;20701;-60
2023/07/29 02:54:53;;;;;;;11.00;7.60;;;;;;;;;;5099134;28;20039;-60
2023/07/29 02:57:18;;;;;;;12.80;8.77;;;;;;;;;;5091909;28;20043;-60
2023/07/29 02:59:44;;;;;;;11.48;7.72;;;;;;;;;;5107585;28;20032;-59
2023/07/29 03:02:09;;;;;;;13.25;7.90;;;;;;;;;;5092268;28;20032;-60
2023/07/29 03:04:35;;;;;;;14.13;8.05;;;;;;;;;;5110922;28;20229;-60
2023/07/29 03:07:01;;;;;;;11.18;7.10;;;;;;;;;;5110563;28;20103;-59
2023/07/29 03:09:26;;;;;;;11.40;7.60;;;;;;;;;;5100040;28;20039;-60
2023/07/29 03:11:52;;;;;;;11.77;7.63;;;;;;;;;;5112577;28;20107;-60
2023/07/29 03:14:18;;;;;;;11.77;7.55;;;;;;;;;;5109872;28;20291;-60
2023/07/29 03:16:43;;;;;;;11.30;7.95;;;;;;;;;;5098898;28;20505;-60
2023/07/29 03:19:08;;;;;;;9.88;7.13;;;;;;;;;;5092171;28;20036;-59
2023/07/29 03:21:34;;;;;;;11.80;7.57;;;;;;;;;;5099278;28;20031;-60
2023/07/29 03:24:00;;;;;;;12.05;7.63;;;;;;;;;;5104474;28;20031;-60
2023/07/29 03:26:28;;;;;;;13.27;7.20;;;;;;;;;;5109892;28;20078;-60
2023/07/29 03:28:54;;;;;;;9.90;6.80;;;;;;;;;;5112737;28;20464;-60
2023/07/29 03:31:19;;;;;;;9.95;6.88;;;;;;;;;;5094772;28;20039;-59
2023/07/29 03:33:44;;;;;;;11.25;6.45;;;;;;;;;;5096126;28;20069;-59
2023/07/29 03:36:10;;;;;;;9.32;6.20;;;;;;;;;;5112334;28;20031;-61
2023/07/29 03:38:39;;;;;;;8.80;6.40;;;;;;;;;;5103004;28;20028;-59
2023/07/29 03:41:05;;;;;;;10.35;6.43;;;;;;;;;;5105111;28;20035;-60
2023/07/29 03:43:31;;;;;;;11.05;7.05;;;;;;;;;;5102626;28;20040;-60
2023/07/29 03:45:56;;;;;;;9.85;6.63;;;;;;;;;;5111502;28;20072;-59
2023/07/29 03:48:22;;;;;;;9.95;6.32;;;;;;;;;;5111619;28;20032;-60
2023/07/29 03:50:47;;;;;;;9.20;6.30;;;;;;;;;;5103135;28;20024;-60
2023/07/29 03:53:12;;;;;;;7.82;6.03;;;;;;;;;;5094474;28;20031;-60
2023/07/29 03:55:38;;;;;;;10.77;6.53;;;;;;;;;;5103625;28;20569;-59
2023/07/29 03:58:03;;;;;;;12.45;6.70;;;;;;;;;;5096535;28;20134;-60
2023/07/29 04:00:28;;;;;;;10.68;6.90;;;;;;;;;;5102576;28;20024;-59
2023/07/29 04:02:54;;;;;;;12.52;6.63;;;;;;;;;;5092941;28;20032;-59
2023/07/29 04:05:19;;;;;;;7.88;6.22;;;;;;;;;;5095082;28;20032;-59
2023/07/29 04:07:45;;;;;;;9.15;6.40;;;;;;;;;;5094046;28;20035;-59
2023/07/29 04:10:11;;;;;;;9.73;6.28;;;;;;;;;;5092711;28;20031;-60
2023/07/29 04:12:37;;;;;;;11.70;6.95;;;;;;;;;;5110371;28;20075;-60
2023/07/29 04:15:03;;;;;;;10.30;7.15;;;;;;;;;;5109939;28;20067;-60
2023/07/29 04:17:28;;;;;;;10.43;7.47;;;;;;;;;;5105131;28;20123;-58
2023/07/29 04:19:54;;;;;;;13.57;7.60;;;;;;;;;;5101318;28;20131;-60
2023/07/29 04:22:19;;;;;;;10.40;7.22;;;;;;;;;;5095933;28;20113;-60
2023/07/29 04:24:44;;;;;;;11.35;7.60;;;;;;;;;;5101101;28;20499;-60
2023/07/29 04:27:10;;;;;;;12.80;8.32;;;;;;;;;;5108541;28;20036;-60
2023/07/29 04:29:35;;;;;;;16.95;8.82;;;;;;;;;;5094240;28;20043;-60
2023/07/29 04:32:04;;;;;;;12.32;8.63;;;;;;;;;;5101424;28;20042;-59
2023/07/29 04:34:30;;;;;;;13.25;9.00;;;;;;;;;;5101907;28;20372;-60
2023/07/29 04:36:55;;;;;;;12.93;8.93;;;;;;;;;;5091934;28;20028;-60
2023/07/29 04:39:21;;;;;;;12.70;8.93;;;;;;;;;;5094822;28;20035;-60
2023/07/29 04:41:46;;;;;;;13.45;9.52;;;;;;;;;;5107742;28;20107;-60
2023/07/29 04:44:12;;;;;;;14.65;9.80;;;;;;;;;;5096394;28;20028;-59
2023/07/29 04:46:38;;;;;;;16.15;9.95;;;;;;;;;;5106598;28;20495;-60
2023/07/29 04:49:03;;;;;;;12.55;9.57;;;;;;;;;;5091524;28;20114;-60
2023/07/29 04:51:29;;;;;;;13.38;9.85;;;;;;;;;;5103034;28;20115;-60
2023/07/29 04:53:55;;;;;;;14.05;10.07;;;;;;;;;;5105925;28;20035;-59
2023/07/29 04:56:20;;;;;;;14.48;9.60;;;;;;;;;;5090393;28;20028;-60
2023/07/29 04:58:45;;;;;;;14.27;9.20;;;;;;;;;;5094924;28;20035;-61
2023/07/29 05:01:11;;;;;;;11.93;8.63;;;;;;;;;;5099929;28;20371;-60
2023/07/29 05:03:37;;;;;;;11.35;7.57;;;;;;;;;;5107049;28;20634;-61
2023/07/29 05:06:02;;;;;;;9.20;6.60;;;;;;;;;;5111442;28;20031;-60
2023/07/29 05:08:28;;;;;;;8.63;5.50;;;;;;;;;;5096337;28;20478;-60
2023/07/29 05:10:57;;;;;;;10.07;4.80;;;;;;;;;;5084225;28;20020;-60
2023/07/29 05:13:23;;;;;;;6.90;4.32;;;;;;;;;;5110708;28;20039;-60
2023/07/29 05:15:49;;;;;;;7.32;4.47;;;;;;;;;;5107722;28;20437;-59
2023/07/29 05:18:17;;;;;;;10.23;4.90;;;;;;;;;;5091933;28;20024;-59
2023/07/29 05:20:43;;;;;;;8.65;4.88;;;;;;;;;;5091615;28;20047;-59
2023/07/29 05:23:09;;;;;;;9.18;5.32;;;;;;;;;;5095742;28;20388;-59
2023/07/29 05:25:37;;;;;;;7.68;5.43;;;;;;;;;;5091126;28;20036;-59
2023/07/29 05:28:03;;;;;;;9.25;6.35;;;;;;;;;;5092674;28;20040;-59
2023/07/29 05:30:30;;;;;;;9.05;6.50;;;;;;;;;;5105632;28;20051;-59
2023/07/29 05:32:57;;;;;;;9.43;6.82;;;;;;;;;;5095399;28;20024;-59
2023/07/29 05:35:22;;;;;;;9.57;6.60;;;;;;;;;;5111231;28;20378;-59
2023/07/29 05:37:48;;;;;;;9.70;6.28;;;;;;;;;;5108668;28;20036;-59
2023/07/29 05:40:13;;;;;;;10.90;6.82;;;;;;;;;;5091434;28;20078;-59
2023/07/29 05:42:38;;;;;;;9.07;6.55;;;;;;;;;;5098567;28;20212;-58
2023/07/29 05:45:04;;;;;;;11.70;6.43;;;;;;;;;;5100981;28;20035;-59
2023/07/29 05:47:30;;;;;;;10.07;6.90;;;;;;;;;;5108307;28;20058;-59
2023/07/29 05:49:55;;;;;;;12.75;7.45;;;;;;;;;;5093863;28;20114;-58
2023/07/29 05:52:20;;;;;;;10.18;7.03;;;;;;;;;;5095005;28;20020;-59
2023/07/29 05:54:46;;;;;;;9.07;6.00;;;;;;;;;;5094316;28;20031;-59
2023/07/29 05:57:14;;;;;;;9.02;5.85;;;;;;;;;;5109480;28;20043;-59
2023/07/29 05:59:39;;;;;;;7.55;4.95;;;;;;;;;;5106626;28;20091;-58
2023/07/29 06:02:05;;;;;;;9.38;4.82;;;;;;;;;;5109493;28;20358;-58
2023/07/29 06:04:31;;;;;;;5.22;3.70;;;;;;;;;;5103057;28;20035;-58
2023/07/29 06:06:56;;;;;;;5.93;3.60;;;;;;;;;;5114669;28;20036;-57
2023/07/29 06:09:22;;;;;;;6.43;3.33;;;;;;;;;;5115115;28;20367;-59
2023/07/29 06:11:48;;;;;;;7.07;3.38;;;;;;;;;;5115658;28;20084;-58
2023/07/29 06:14:13;;;;;;;3.67;3.00;;;;;;;;;;5114739;28;20410;-59
2023/07/29 06:16:41;;;;;;;5.20;2.92;;;;;;;;;;5114108;28;20769;-58
2023/07/29 06:19:08;;;;;;;4.28;2.78;;;;;;;;;;5108349;27;20110;-58
2023/07/29 06:21:34;;;;;;;6.95;2.90;;;;;;;;;;5110422;28;20024;-58
2023/07/29 06:23:59;;;;;;;4.78;2.88;;;;;;;;;;5115110;28;20395;-58
2023/07/29 06:26:25;;;;;;;4.10;2.70;;;;;;;;;;5114159;28;20077;-59
2023/07/29 06:28:50;;;;;;;3.97;3.03;;;;;;;;;;5113738;28;20036;-59
2023/07/29 06:31:16;;;;;;;5.15;2.50;;;;;;;;;;5113742;28;20088;-58
2023/07/29 06:33:41;;;;;;;2.92;2.20;;;;;;;;;;5111937;28;20204;-61
2023/07/29 06:36:07;;;;;;;3.67;2.28;;;;;;;;;;5108750;28;20376;-61
2023/07/29 06:38:32;;;;;;;3.80;2.40;;;;;;;;;;5093658;28;20112;-61
2023/07/29 06:40:57;;;;;;;5.47;2.30;;;;;;;;;;5103890;28;20345;-61
2023/07/29 06:43:23;;;;;;;3.90;2.20;;;;;;;;;;5114525;28;20042;-65
2023/07/29 06:45:48;;;;;;;3.05;1.92;;;;;;;;;;5114463;28;20031;-61
2023/07/29 06:48:14;;;;;;;4.03;2.30;;;;;;;;;;5113759;28;20035;-62
2023/07/29 06:50:39;;;;;;;3.85;2.17;;;;;;;;;;5113990;28;20023;-62
2023/07/29 06:53:05;;;;;;;3.72;2.15;;;;;;;;;;5110893;28;20472;-61
2023/07/29 06:55:30;;;;;;;4.10;2.10;;;;;;;;;;5113651;27;20031;-62
2023/07/29 06:57:56;;;;;;;4.80;2.40;;;;;;;;;;5113555;28;20440;-62
2023/07/29 07:00:21;;;;;;;4.40;2.30;;;;;;;;;;5114198;28;20384;-61
2023/07/29 07:02:46;;;;;;;5.78;2.28;;;;;;;;;;5101222;28;20096;-61
2023/07/29 07:05:12;;;;;;;2.92;2.20;;;;;;;;;;5110591;28;20080;-62
2023/07/29 07:07:37;;;;;;;3.38;2.10;;;;;;;;;;5113576;28;20031;-62
2023/07/29 07:10:03;;;;;;;4.72;2.50;;;;;;;;;;5112419;28;20042;-61
2023/07/29 07:12:29;;;;;;;3.10;2.22;;;;;;;;;;5113554;28;20384;-61
2023/07/29 07:14:54;;;;;;;3.35;2.03;;;;;;;;;;5113525;28;20024;-61
2023/07/29 07:17:19;;;;;;;3.00;1.92;;;;;;;;;;5113987;28;20487;-61
2023/07/29 07:19:46;;;;;;;4.63;2.00;;;;;;;;;;5109840;27;20027;-61
2023/07/29 07:22:11;;;;;;;3.42;2.15;;;;;;;;;;5113682;28;20063;-62
2023/07/29 07:24:37;;;;;;;4.38;2.40;;;;;;;;;;5112646;28;20451;-62
2023/07/29 07:27:02;;;;;;;5.40;2.30;;;;;;;;;;5113930;28;20031;-61
2023/07/29 07:29:28;;;;;;;4.45;2.30;;;;;;;;;;5113028;28;20050;-65
2023/07/29 07:31:54;;;;;;;4.78;2.28;;;;;;;;;;5113066;28;20100;-61
2023/07/29 07:34:20;;;;;;;7.38;2.50;;;;;;;;;;5099139;28;20035;-61
2023/07/29 07:36:46;;;;;;;6.07;2.38;;;;;;;;;;5112303;28;20642;-62
2023/07/29 07:39:11;;;;;;;4.18;2.40;;;;;;;;;;5112109;27;20020;-62
2023/07/29 07:41:37;;;;;;;8.18;2.55;;;;;;;;;;5112450;28;20043;-62
2023/07/29 07:44:02;;;;;;;7.07;2.63;;;;;;;;;;5113448;28;20381;-61
2023/07/29 07:46:28;;;;;;;4.90;2.78;;;;;;;;;;5108150;28;20035;-66
2023/07/29 07:48:54;;;;;;;5.50;2.40;;;;;;;;;;5111811;28;20120;-62
2023/07/29 07:51:19;;;;;;;6.30;2.55;;;;;;;;;;5110864;28;20468;-61
2023/07/29 07:53:44;;;;;;;4.68;2.55;;;;;;;;;;5110267;28;20222;-61
2023/07/29 07:56:10;;;;;;;4.60;2.50;;;;;;;;;;5103097;28;20452;-61
2023/07/29 07:58:35;;;;;;;4.47;2.80;;;;;;;;;;5110743;28;20084;-60
2023/07/29 08:01:05;;;;;;;5.28;2.60;;;;;;;;;;5111922;28;20019;-61
2023/07/29 08:03:30;;;;;;;4.28;2.50;;;;;;;;;;5100282;28;20043;-62
2023/07/29 08:05:56;;;;;;;6.65;2.22;;;;;;;;;;5106097;28;20456;-61
2023/07/29 08:08:21;;;;;;;4.45;2.53;;;;;;;;;;5094236;28;20522;-60
2023/07/29 08:10:47;;;;;;;3.80;2.55;;;;;;;;;;5101474;28;20350;-61
2023/07/29 08:13:12;;;;;;;4.57;2.72;;;;;;;;;;5111916;28;20035;-63
2023/07/29 08:15:37;;;;;;;6.03;2.72;;;;;;;;;;5110961;28;20027;-62
2023/07/29 08:18:03;;;;;;;4.35;2.40;;;;;;;;;;5101861;28;20032;-62
2023/07/29 08:20:28;;;;;;;4.60;3.00;;;;;;;;;;5099680;28;20487;-66
2023/07/29 08:22:53;;;;;;;5.72;3.10;;;;;;;;;;5099645;28;20032;-61
2023/07/29 08:25:19;;;;;;;6.15;3.10;;;;;;;;;;5112818;28;20043;-62
2023/07/29 08:27:44;;;;;;;5.13;3.03;;;;;;;;;;5111818;27;20023;-63
2023/07/29 08:30:10;;;;;;;5.70;3.00;;;;;;;;;;5110260;28;20047;-62
2023/07/29 08:32:35;;;;;;;5.03;2.88;;;;;;;;;;5108727;28;20452;-62
2023/07/29 08:35:01;;;;;;;8.68;2.65;;;;;;;;;;5106041;28;20028;-60
2023/07/29 08:37:27;;;;;;;4.10;2.30;;;;;;;;;;5105210;28;20124;-62
2023/07/29 08:39:53;;;;;;;4.50;2.20;;;;;;;;;;5111763;27;20042;-62
2023/07/29 08:42:19;;;;;;;2.70;1.85;;;;;;;;;;5112205;28;20506;-62
2023/07/29 08:44:45;;;;;;;3.15;2.00;;;;;;;;;;5110618;28;20067;-62
2023/07/29 08:47:13;;;;;;;2.85;1.80;;;;;;;;;;5111600;28;20035;-61
2023/07/29 08:49:38;;;;;;;2.70;1.80;;;;;;;;;;5104897;28;20039;-61
2023/07/29 08:52:04;;;;;;;3.08;1.90;;;;;;;;;;5096060;28;20031;-61
2023/07/29 08:54:30;;;;;;;3.33;1.80;;;;;;;;;;5103482;28;20032;-65
2023/07/29 08:56:56;;;;;;;2.17;1.65;;;;;;;;;;5101953;28;20023;-61
2023/07/29 08:59:21;;;;;;;3.28;1.80;;;;;;;;;;5110301;28;20035;-61
2023/07/29 09:01:47;;;;;;;2.63;1.60;;;;;;;;;;5110366;28;20055;-61
2023/07/29 09:04:13;;;;;;;3.92;1.65;;;;;;;;;;5111836;28;20407;-61
2023/07/29 09:06:39;;;;;;;2.55;1.50;;;;;;;;;;5111704;28;20117;-61
2023/07/29 09:09:07;;;;;;;2.28;1.45;;;;;;;;;;5110874;28;20055;-61
2023/07/29 09:11:33;;;;;;;2.90;1.45;;;;;;;;;;5109478;28;20028;-64
2023/07/29 09:13:58;;;;;;;2.45;1.60;;;;;;;;;;5111073;28;20400;-60
2023/07/29 09:16:24;;;;;;;2.33;1.50;;;;;;;;;;5112328;28;20414;-61
2023/07/29 09:18:51;;;;;;;2.22;1.40;;;;;;;;;;5098493;28;20062;-61
2023/07/29 09:21:28;;;;;;;1.40;1.20;;;;;;;;;;5103454;28;20035;-62
2023/07/29 09:23:54;;;;;;;1.60;1.40;;;;;;;;;;5101670;28;20027;-61
2023/07/29 09:26:24;;;;;;;3.22;1.40;;;;;;;;;;5115222;27;20084;-62
2023/07/29 09:28:53;;;;;;;1.85;1.30;;;;;;;;;;5113063;27;20043;-61
2023/07/29 09:31:20;;;;;;;2.20;1.50;;;;;;;;;;5112513;28;20024;-61
2023/07/29 09:33:45;;;;;;;1.58;1.33;;;;;;;;;;5114057;28;20057;-61
2023/07/29 09:36:11;;;;;;;1.60;1.40;;;;;;;;;;5116073;28;20031;-61
2023/07/29 09:38:37;;;;;;;2.72;2.08;;;;;;;;;;5113860;28;20057;-61
2023/07/29 09:41:02;;;;;;;2.88;1.50;;;;;;;;;;5111857;28;20040;-61
2023/07/29 09:43:33;;;;;;;3.53;1.40;;;;;;;;;;5114784;27;20114;-58
2023/07/29 09:46:06;;;;;;;;;;;;;;;;;;5109322;28;20036;-58
2023/07/29 09:48:36;;;;;;;1.98;1.65;;;;;;;;;;5095181;28;20004;-58
2023/07/29 09:51:14;;;;;;;2.13;1.77;;;;;;;;;;5095443;28;20039;-58
2023/07/29 09:53:45;;;;;;;1.88;1.67;;;;;;;;;;5094473;28;20039;-59
2023/07/29 09:56:10;;;;;;;;;;;;;;;;;;5095774;28;20043;-58
2023/07/29 09:58:38;;;;;;;3.83;1.90;;;;;;;;;;5112497;28;19908;-58
2023/07/29 10:01:07;;;;;;;2.15;1.90;;;;;;;;;;5113619;28;20035;-58
2023/07/29 10:03:33;;;;;;;2.30;1.80;;;;;;;;;;5115769;28;20506;-58
2023/07/29 10:06:02;;;;;;;12.15;2.00;;;;;;;;;;5114810;28;20031;-58
2023/07/29 10:08:31;;;;;;;2.13;1.90;;;;;;;;;;5107228;28;20502;-58
2023/07/29 10:10:59;;;;;;;2.83;2.15;;;;;;;;;;5114301;28;20627;-58
2023/07/29 10:13:26;;;;;;;2.90;2.22;;;;;;;;;;5110952;28;20035;-58
2023/07/29 10:15:53;;;;;;;4.57;2.38;;;;;;;;;;5112397;28;20039;-58
2023/07/29 10:18:19;;;;;;;3.83;2.40;;;;;;;;;;5110020;28;20028;-58
2023/07/29 10:20:46;;;;;;;2.92;2.10;;;;;;;;;;5114208;27;20038;-58
2023/07/29 10:23:13;;;;;;;2.42;1.95;;;;;;;;;;5115498;28;20495;-58
2023/07/29 10:25:46;;;;;;;4.40;2.10;;;;;;;;;;5112712;28;20118;-59
2023/07/29 10:28:12;;;;;;;3.42;2.17;;;;;;;;;;5113065;28;20024;-58
2023/07/29 10:30:38;;;;;;;3.72;2.22;;;;;;;;;;5114219;28;20047;-59
2023/07/29 10:33:05;;;;;;;2.63;2.00;;;;;;;;;;5114774;28;20038;-58
2023/07/29 10:35:33;;;;;;;3.17;2.15;;;;;;;;;;5114401;28;20114;-58
2023/07/29 10:37:59;;;;;;;4.38;2.25;;;;;;;;;;5113826;28;20516;-58
2023/07/29 10:40:24;;;;;;;4.13;2.90;;;;;;;;;;5114288;28;20031;-58
2023/07/29 10:43:26;;;;;;;4.85;3.05;;;;;;;;;;5114126;28;20031;-58
2023/07/29 10:45:52;;;;;;;4.88;3.20;;;;;;;;;;5070845;28;20501;-58
2023/07/29 10:48:50;;;;;;;4.15;2.80;;;;;;;;;;5113629;28;20069;-58
2023/07/29 10:51:33;;;;;;;4.03;2.78;;;;;;;;;;5112572;28;20074;-58
2023/07/29 10:54:01;;;;;;;3.30;2.50;;;;;;;;;;5113926;28;20023;-58
2023/07/29 10:56:31;;;;;;;3.88;2.72;;;;;;;;;;5100997;28;20093;-57
2023/07/29 10:58:59;;;;;;;3.08;2.47;;;;;;;;;;5093233;28;20612;-60
2023/07/29 11:01:34;;;;;;;3.95;2.42;;;;;;;;;;5098493;28;20040;-61
2023/07/29 11:04:23;;;;;;;4.32;2.85;;;;;;;;;;5113667;28;20084;-60
2023/07/29 11:07:04;;;;;;;4.70;2.80;;;;;;;;;;5111229;28;20040;-60
2023/07/29 11:09:42;;;;;;;3.97;2.90;;;;;;;;;;5110675;27;20385;-59
2023/07/29 11:12:40;;;;;;;3.67;2.90;;;;;;;;;;5109714;28;20513;-60
2023/07/29 11:15:23;;;;;;;3.83;2.60;;;;;;;;;;5107997;28;20039;-61
2023/07/29 11:17:55;;;;;;;4.80;2.47;;;;;;;;;;5095706;28;20031;-60
2023/07/29 11:20:31;;;;;;;3.20;2.15;;;;;;;;;;5105324;28;20051;-60
2023/07/29 11:22:59;;;;;;;4.05;2.42;;;;;;;;;;5113288;28;20042;-60
2023/07/29 11:25:26;;;;;;;3.85;2.45;;;;;;;;;;5113143;28;20076;-60
2023/07/29 11:27:54;;;;;;;3.60;2.13;;;;;;;;;;5106400;28;20028;-60
2023/07/29 11:30:20;;;;;;;2.35;1.80;;;;;;;;;;5113334;28;20054;-60
2023/07/29 11:32:49;;;;;;;2.45;1.60;;;;;;;;;;5112680;28;20027;-61
2023/07/29 11:35:16;;;;;;;2.00;1.70;;;;;;;;;;5113602;28;20038;-61
2023/07/29 11:37:44;;;;;;;2.38;1.77;;;;;;;;;;5111354;28;20077;-63
2023/07/29 11:40:14;;;;;;;3.35;1.92;;;;;;;;;;5112601;28;20050;-60
2023/07/29 11:42:40;;;;;;;3.53;2.08;;;;;;;;;;5111773;28;20039;-63
2023/07/29 11:45:07;;;;;;;1.83;1.58;;;;;;;;;;5110097;28;20100;-60
2023/07/29 11:47:36;;;;;;;2.47;1.90;;;;;;;;;;5112394;28;20023;-60
2023/07/29 11:50:15;;;;;;;1.98;1.77;;;;;;;;;;5112525;28;20612;-60
2023/07/29 11:52:46;;;;;;;2.67;1.88;;;;;;;;;;5113269;28;20119;-62
2023/07/29 11:55:11;;;;;;;;;;;;;;;;;;5102967;28;20032;-61
2023/07/29 11:57:38;;;;;;;2.70;1.98;;;;;;;;;;5113631;28;20382;-60
2023/07/29 12:00:06;;;;;;;4.00;2.08;;;;;;;;;;5112558;28;20027;-60
2023/07/29 12:02:32;;;;;;;2.80;2.00;;;;;;;;;;5112808;27;20544;-60
2023/07/29 12:04:58;;;;;;;3.88;2.17;;;;;;;;;;5112456;28;20028;-60
2023/07/29 12:07:27;;;;;;;4.97;2.45;;;;;;;;;;5113493;27;20035;-60
2023/07/29 12:09:52;;;;;;;3.67;2.10;;;;;;;;;;5110813;28;20035;-61
2023/07/29 12:12:18;;;;;;;2.70;2.00;;;;;;;;;;5113210;28;20481;-62
2023/07/29 12:14:45;;;;;;;3.63;2.30;;;;;;;;;;5111009;28;20036;-65
2023/07/29 12:17:11;;;;;;;2.17;1.98;;;;;;;;;;5110445;27;20042;-63
2023/07/29 12:19:39;;;;;;;2.20;1.88;;;;;;;;;;5105676;28;20387;-62
2023/07/29 12:22:07;;;;;;;3.28;2.00;;;;;;;;;;5106708;28;20040;-61
2023/07/29 12:24:35;;;;;;;3.50;1.90;;;;;;;;;;5110455;28;20050;-62
2023/07/29 12:27:01;;;;;;;3.22;1.83;;;;;;;;;;5112145;28;20042;-62
2023/07/29 12:29:27;;;;;;;2.53;1.80;;;;;;;;;;5112386;28;20075;-61
2023/07/29 12:32:03;;;;;;;3.15;1.80;;;;;;;;;;5111464;28;20059;-62
2023/07/29 12:34:30;;;;;;;4.95;1.90;;;;;;;;;;5110557;28;20118;-61
2023/07/29 12:36:58;;;;;;;2.42;1.80;;;;;;;;;;5111815;28;20043;-61
2023/07/29 12:39:28;;;;;;;3.63;1.80;;;;;;;;;;5112612;28;20507;-62
2023/07/29 12:41:56;;;;;;;3.77;1.87;;;;;;;;;;5111739;28;20100;-61
2023/07/29 12:44:23;;;;;;;1.98;1.60;;;;;;;;;;5112275;27;20103;-61
2023/07/29 12:46:48;;;;;;;2.55;1.70;;;;;;;;;;5109035;28;20115;-62
2023/07/29 12:49:14;;;;;;;2.78;1.83;;;;;;;;;;5101734;28;20107;-62
2023/07/29 12:51:40;;;;;;;2.90;1.80;;;;;;;;;;5109782;28;20472;-62
2023/07/29 12:54:06;;;;;;;3.28;1.90;;;;;;;;;;5098922;28;20589;-62
2023/07/29 12:56:32;;;;;;;2.47;1.85;;;;;;;;;;5105038;28;20036;-60
2023/07/29 12:58:58;;;;;;;2.53;1.63;;;;;;;;;;5092803;28;20148;-62
2023/07/29 13:01:24;;;;;;;2.65;1.80;;;;;;;;;;5111879;28;20051;-63
2023/07/29 13:03:50;;;;;;;2.83;1.80;;;;;;;;;;5111027;28;20061;-60
2023/07/29 13:06:15;;;;;;;3.55;1.90;;;;;;;;;;5111962;28;20392;-61
2023/07/29 13:08:41;;;;;;;2.88;2.10;;;;;;;;;;5109630;28;20054;-60
2023/07/29 13:11:06;;;;;;;3.38;2.30;;;;;;;;;;5109985;28;20019;-61
2023/07/29 13:13:32;;;;;;;3.15;2.28;;;;;;;;;;5112422;28;20036;-60
2023/07/29 13:15:57;;;;;;;2.80;2.03;;;;;;;;;;5110011;28;20078;-61
2023/07/29 13:18:23;;;;;;;2.88;2.00;;;;;;;;;;5107167;28;20031;-61
2023/07/29 13:20:48;;;;;;;2.65;1.90;;;;;;;;;;5109011;28;20032;-64
2023/07/29 13:23:15;;;;;;;2.30;1.77;;;;;;;;;;5111980;28;20032;-62
2023/07/29 13:25:41;;;;;;;3.15;1.90;;;;;;;;;;5106219;28;20035;-62
2023/07/29 13:28:07;;;;;;;2.40;1.70;;;;;;;;;;5108355;28;20027;-62
2023/07/29 13:30:33;;;;;;;3.40;1.90;;;;;;;;;;5111999;28;20056;-62
2023/07/29 13:32:58;;;;;;;4.18;1.83;;;;;;;;;;5110631;28;20037;-62
2023/07/29 13:35:24;;;;;;;2.78;1.90;;;;;;;;;;5111900;28;20020;-61
2023/07/29 13:37:49;;;;;;;3.17;1.90;;;;;;;;;;5111371;28;20035;-62
2023/07/29 13:40:15;;;;;;;2.55;1.92;;;;;;;;;;5111787;28;20038;-61
2023/07/29 13:42:40;;;;;;;3.10;1.80;;;;;;;;;;5108945;28;20110;-60
2023/07/29 13:45:06;;;;;;;3.65;1.90;;;;;;;;;;5110740;28;20145;-62
2023/07/29 13:47:31;;;;;;;4.25;1.98;;;;;;;;;;5111442;28;20064;-61
2023/07/29 13:50:00;;;;;;;3.33;2.05;;;;;;;;;;5110626;28;20075;-61
2023/07/29 13:52:26;;;;;;;2.80;2.10;;;;;;;;;;5110398;28;20028;-61
2023/07/29 13:54:51;;;;;;;3.78;1.92;;;;;;;;;;5110767;28;20049;-62
2023/07/29 13:57:17;;;;;;;6.47;1.73;;;;;;;;;;5110134;28;20120;-60
2023/07/29 13:59:42;;;;;;;3.97;2.00;;;;;;;;;;5111051;28;20460;-60
2023/07/29 14:02:08;;;;;;;3.25;2.10;;;;;;;;;;5110067;28;20023;-60
2023/07/29 14:04:33;;;;;;;2.80;2.03;;;;;;;;;;5111862;28;20380;-59
2023/07/29 14:06:59;;;;;;;4.18;2.30;;;;;;;;;;5109766;28;20051;-59
2023/07/29 14:09:25;;;;;;;4.55;2.17;;;;;;;;;;5111736;28;20094;-59
2023/07/29 14:11:50;;;;;;;10.40;3.33;;;;;;;;;;5106276;28;20118;-60
2023/07/29 14:14:16;;;;;;;10.20;3.53;;;;;;;;;;5094734;28;20035;-60
2023/07/29 14:16:41;;;;;;;7.75;3.40;;;;;;;;;;5112945;28;20040;-60
2023/07/29 14:19:07;;;;;;;6.38;3.72;;;;;;;;;;5112958;28;20042;-60
2023/07/29 14:21:32;;;;;;;9.30;4.35;;;;;;;;;;5115170;28;20031;-60
2023/07/29 14:23:58;;;;;;;13.60;4.32;;;;;;;;;;5114117;28;20043;-60
2023/07/29 14:26:23;;;;;;;5.90;4.03;;;;;;;;;;5114499;28;20112;-61
2023/07/29 14:28:49;;;;;;;7.32;4.47;;;;;;;;;;5102815;27;20099;-62
2023/07/29 14:31:16;;;;;;;9.27;4.57;;;;;;;;;;5093980;28;20068;-61
2023/07/29 14:33:42;;;;;;;8.82;3.90;;;;;;;;;;5113392;28;20434;-61
2023/07/29 14:36:08;;;;;;;10.82;3.88;;;;;;;;;;5113139;28;20125;-61
2023/07/29 14:38:34;;;;;;;8.25;4.10;;;;;;;;;;5114471;28;20398;-61